createdAt,value
2024-05-09T00:00:53.486Z,53.24
2024-05-09T00:01:53.634Z,53.24
2024-05-09T00:02:53.649Z,53.22
2024-05-09T00:03:53.734Z,53.24
2024-05-09T00:04:53.925Z,53.22
2024-05-09T00:05:53.920Z,53.32
2024-05-09T00:06:53.982Z,53.24
2024-05-09T00:07:54.118Z,53.24
2024-05-09T00:08:54.120Z,53.24
2024-05-09T00:09:54.186Z,53.24
2024-05-09T00:10:54.377Z,53.14
2024-05-09T00:11:54.601Z,53.24
2024-05-09T00:12:54.451Z,53.24
2024-05-09T00:13:54.554Z,53.24
2024-05-09T00:14:54.612Z,53.24
2024-05-09T00:15:54.687Z,53.24
2024-05-09T00:16:54.829Z,53.14
2024-05-09T00:17:54.915Z,53.24
2024-05-09T00:18:54.903Z,53.24
2024-05-09T00:19:55.014Z,53.24
2024-05-09T00:20:55.087Z,53.14
2024-05-09T00:21:55.156Z,53.24
2024-05-09T00:22:55.264Z,53.24
2024-05-09T00:23:55.316Z,53.24
2024-05-09T00:24:55.367Z,53.24
2024-05-09T00:25:55.520Z,53.24
2024-05-09T00:26:55.512Z,53.14
2024-05-09T00:27:55.591Z,53.14
2024-05-09T00:28:55.709Z,53.14
2024-05-09T00:29:55.746Z,53.14
2024-05-09T00:30:55.869Z,53.14
2024-05-09T00:31:56.008Z,53.05
2024-05-09T00:32:56.062Z,53.05
2024-05-09T00:33:56.234Z,53.14
2024-05-09T00:34:56.183Z,53.05
2024-05-09T00:35:56.290Z,53.14
2024-05-09T00:36:56.299Z,53.05
2024-05-09T00:37:56.430Z,53.05
2024-05-09T00:38:56.474Z,53.05
2024-05-09T00:39:56.557Z,53.14
2024-05-09T00:40:56.682Z,53.14
2024-05-09T00:41:56.696Z,53.14
2024-05-09T00:42:56.767Z,53.14
2024-05-09T00:43:56.904Z,53.14
2024-05-09T00:44:56.964Z,53.14
2024-05-09T00:45:57.018Z,53.14
2024-05-09T00:46:57.122Z,53.14
2024-05-09T00:47:57.595Z,53.24
2024-05-09T00:48:57.446Z,53.24
2024-05-09T00:49:57.399Z,53.24
2024-05-09T00:50:57.430Z,53.14
2024-05-09T00:51:57.491Z,53.24
2024-05-09T00:52:57.691Z,53.24
2024-05-09T00:53:57.630Z,53.24
2024-05-09T00:54:57.708Z,53.24
2024-05-09T00:55:57.792Z,53.24
2024-05-09T00:56:57.848Z,53.24
2024-05-09T00:57:57.953Z,53.24
2024-05-09T00:58:58.098Z,53.24
2024-05-09T00:59:58.135Z,53.24
2024-05-09T01:00:58.223Z,53.24
2024-05-09T01:01:58.412Z,53.24
2024-05-09T01:02:58.545Z,53.24
2024-05-09T01:03:58.553Z,53.34
2024-05-09T01:04:58.592Z,53.34
2024-05-09T01:05:58.639Z,53.24
2024-05-09T01:06:58.692Z,53.24
2024-05-09T01:07:58.817Z,53.34
2024-05-09T01:08:58.932Z,53.34
2024-05-09T01:09:58.952Z,53.34
2024-05-09T01:10:59.118Z,53.34
2024-05-09T01:11:59.241Z,53.34
2024-05-09T01:12:59.201Z,53.34
2024-05-09T01:14:00.278Z,53.34
2024-05-09T01:14:59.370Z,53.34
2024-05-09T01:15:59.456Z,53.34
2024-05-09T01:16:59.549Z,53.34
2024-05-09T01:17:59.750Z,53.24
2024-05-09T01:18:59.879Z,53.24
2024-05-09T01:19:59.827Z,53.24
2024-05-09T01:20:59.909Z,53.34
2024-05-09T01:21:59.890Z,53.34
2024-05-09T01:22:59.997Z,53.24
2024-05-09T01:24:00.043Z,53.24
2024-05-09T01:25:00.168Z,53.24
2024-05-09T01:26:00.285Z,53.34
2024-05-09T01:27:00.292Z,53.24
2024-05-09T01:28:00.370Z,53.24
2024-05-09T01:29:00.455Z,53.24
2024-05-09T01:30:00.557Z,53.24
2024-05-09T01:31:00.600Z,53.24
2024-05-09T01:32:00.869Z,53.24
2024-05-09T01:33:01.219Z,53.24
2024-05-09T01:34:00.922Z,53.34
2024-05-09T01:35:01.080Z,53.24
2024-05-09T01:36:01.048Z,53.24
2024-05-09T01:37:01.081Z,53.24
2024-05-09T01:38:01.315Z,53.34
2024-05-09T01:39:01.243Z,53.24
2024-05-09T01:40:01.356Z,53.24
2024-05-09T01:41:01.475Z,53.24
2024-05-09T01:42:01.516Z,53.24
2024-05-09T01:43:01.590Z,53.24
2024-05-09T01:44:01.742Z,53.24
2024-05-09T01:45:01.739Z,53.24
2024-05-09T01:46:01.831Z,53.24
2024-05-09T01:47:01.930Z,53.24
2024-05-09T01:48:02.771Z,53.34
2024-05-09T01:49:02.180Z,53.24
2024-05-09T01:50:02.254Z,53.24
2024-05-09T01:51:02.269Z,53.24
2024-05-09T01:52:02.278Z,53.24
2024-05-09T01:53:02.446Z,53.24
2024-05-09T01:54:02.463Z,53.24
2024-05-09T01:55:05.562Z,53.24
2024-05-09T01:56:02.620Z,53.24
2024-05-09T01:57:02.680Z,53.24
2024-05-09T01:58:02.735Z,53.24
2024-05-09T01:59:02.919Z,53.24
2024-05-09T02:00:03.651Z,53.24
2024-05-09T02:01:03.033Z,53.24
2024-05-09T02:02:03.237Z,53.24
2024-05-09T02:03:03.369Z,53.24
2024-05-09T02:04:03.486Z,53.24
2024-05-09T02:05:03.516Z,53.24
2024-05-09T02:06:03.624Z,53.14
2024-05-09T02:07:03.480Z,53.24
2024-05-09T02:08:03.700Z,53.24
2024-05-09T02:09:03.654Z,53.24
2024-05-09T02:10:06.558Z,53.24
2024-05-09T02:11:04.000Z,53.24
2024-05-09T02:12:03.972Z,53.24
2024-05-09T02:13:03.954Z,53.14
2024-05-09T02:14:04.075Z,53.14
2024-05-09T02:15:04.121Z,53.14
2024-05-09T02:16:04.183Z,53.14
2024-05-09T02:17:04.285Z,53.14
2024-05-09T02:18:04.640Z,53.24
2024-05-09T02:19:04.561Z,53.24
2024-05-09T02:20:05.975Z,53.24
2024-05-09T02:21:04.714Z,53.24
2024-05-09T02:22:04.722Z,53.14
2024-05-09T02:23:05.398Z,53.24
2024-05-09T02:24:04.905Z,53.24
2024-05-09T02:25:04.939Z,53.24
2024-05-09T02:26:05.094Z,53.14
2024-05-09T02:27:05.130Z,53.24
2024-05-09T02:28:05.198Z,53.17
2024-05-09T02:29:05.376Z,53.14
2024-05-09T02:30:12.233Z,53.14
2024-05-09T02:31:06.461Z,53.17
2024-05-09T02:32:05.649Z,53.14
2024-05-09T02:33:05.946Z,53.17
2024-05-09T02:34:05.913Z,53.14
2024-05-09T02:35:05.842Z,53.17
2024-05-09T02:36:05.894Z,53.14
2024-05-09T02:37:05.982Z,53.17
2024-05-09T02:38:06.146Z,53.17
2024-05-09T02:39:06.154Z,53.14
2024-05-09T02:40:09.117Z,53.17
2024-05-09T02:41:07.436Z,53.14
2024-05-09T02:42:06.362Z,53.14
2024-05-09T02:43:06.804Z,53.07
2024-05-09T02:44:06.612Z,53.07
2024-05-09T02:45:06.644Z,53.05
2024-05-09T02:46:06.721Z,53.07
2024-05-09T02:47:07.039Z,53.17
2024-05-09T02:48:07.176Z,53.07
2024-05-09T02:49:07.065Z,53.07
2024-05-09T02:50:08.274Z,53.07
2024-05-09T02:51:07.306Z,53.07
2024-05-09T02:52:07.176Z,53.07
2024-05-09T02:53:07.495Z,53.07
2024-05-09T02:54:07.308Z,53.05
2024-05-09T02:55:07.430Z,53.07
2024-05-09T02:56:07.543Z,53.07
2024-05-09T02:57:07.559Z,53.07
2024-05-09T02:58:07.641Z,53.07
2024-05-09T02:59:07.747Z,52.97
2024-05-09T03:00:15.077Z,53.07
2024-05-09T03:01:08.974Z,52.97
2024-05-09T03:02:08.044Z,52.94
2024-05-09T03:03:09.476Z,52.97
2024-05-09T03:04:08.313Z,52.97
2024-05-09T03:05:08.378Z,52.97
2024-05-09T03:06:08.299Z,52.87
2024-05-09T03:07:08.368Z,52.97
2024-05-09T03:08:08.643Z,52.97
2024-05-09T03:09:08.499Z,52.87
2024-05-09T03:10:18.142Z,52.87
2024-05-09T03:11:09.768Z,52.87
2024-05-09T03:12:08.880Z,52.87
2024-05-09T03:13:09.221Z,52.94
2024-05-09T03:14:08.989Z,52.87
2024-05-09T03:15:09.099Z,52.97
2024-05-09T03:16:09.138Z,52.87
2024-05-09T03:17:09.279Z,52.87
2024-05-09T03:18:09.770Z,52.97
2024-05-09T03:19:09.559Z,52.87
2024-05-09T03:20:16.914Z,52.87
2024-05-09T03:21:10.750Z,52.87
2024-05-09T03:22:09.660Z,52.87
2024-05-09T03:23:10.453Z,52.77
2024-05-09T03:24:09.849Z,52.87
2024-05-09T03:25:09.938Z,52.77
2024-05-09T03:26:10.005Z,52.77
2024-05-09T03:27:10.071Z,52.77
2024-05-09T03:28:10.153Z,52.77
2024-05-09T03:29:10.324Z,52.77
2024-05-09T03:30:15.383Z,52.77
2024-05-09T03:31:11.382Z,52.77
2024-05-09T03:32:10.587Z,52.77
2024-05-09T03:33:10.871Z,52.77
2024-05-09T03:34:10.688Z,52.67
2024-05-09T03:35:10.771Z,52.67
2024-05-09T03:36:11.477Z,52.67
2024-05-09T03:37:10.892Z,52.67
2024-05-09T03:38:11.136Z,52.64
2024-05-09T03:39:11.054Z,52.67
2024-05-09T03:40:17.699Z,52.67
2024-05-09T03:41:12.335Z,52.67
2024-05-09T03:42:11.311Z,52.67
2024-05-09T03:43:11.386Z,52.67
2024-05-09T03:44:11.490Z,52.67
2024-05-09T03:45:11.548Z,52.67
2024-05-09T03:46:11.619Z,52.64
2024-05-09T03:47:11.850Z,52.57
2024-05-09T03:48:12.357Z,52.57
2024-05-09T03:49:11.972Z,52.57
2024-05-09T03:50:18.369Z,52.57
2024-05-09T03:51:13.186Z,52.67
2024-05-09T03:52:12.297Z,52.55
2024-05-09T03:53:12.408Z,52.57
2024-05-09T03:54:12.305Z,52.55
2024-05-09T03:55:12.365Z,52.57
2024-05-09T03:56:12.460Z,52.57
2024-05-09T03:57:12.584Z,52.57
2024-05-09T03:58:12.603Z,52.55
2024-05-09T03:59:12.728Z,52.57
2024-05-09T04:00:18.202Z,52.55
2024-05-09T04:01:13.929Z,52.55
2024-05-09T04:02:13.029Z,52.55
2024-05-09T04:03:13.626Z,52.57
2024-05-09T04:04:13.136Z,52.57
2024-05-09T04:05:13.224Z,52.57
2024-05-09T04:06:13.250Z,52.57
2024-05-09T04:07:13.383Z,52.57
2024-05-09T04:08:13.500Z,52.47
2024-05-09T04:09:13.471Z,52.47
2024-05-09T04:10:21.204Z,52.57
2024-05-09T04:11:14.797Z,52.55
2024-05-09T04:12:13.934Z,52.57
2024-05-09T04:13:13.784Z,52.47
2024-05-09T04:14:14.064Z,52.47
2024-05-09T04:15:13.983Z,52.44
2024-05-09T04:16:14.013Z,52.47
2024-05-09T04:17:14.102Z,52.47
2024-05-09T04:18:14.210Z,52.44
2024-05-09T04:19:14.526Z,52.57
2024-05-09T04:20:24.216Z,52.47
2024-05-09T04:21:15.511Z,52.47
2024-05-09T04:22:14.498Z,52.47
2024-05-09T04:23:15.060Z,52.57
2024-05-09T04:24:14.667Z,52.57
2024-05-09T04:25:14.752Z,52.47
2024-05-09T04:26:14.882Z,52.47
2024-05-09T04:27:14.975Z,52.44
2024-05-09T04:28:15.018Z,52.47
2024-05-09T04:29:15.106Z,52.55
2024-05-09T04:30:21.847Z,52.47
2024-05-09T04:31:16.310Z,52.47
2024-05-09T04:32:15.502Z,52.47
2024-05-09T04:33:15.901Z,52.57
2024-05-09T04:34:15.736Z,52.57
2024-05-09T04:35:15.702Z,52.57
2024-05-09T04:36:15.804Z,52.57
2024-05-09T04:37:15.826Z,52.57
2024-05-09T04:38:16.180Z,52.57
2024-05-09T04:39:15.980Z,52.57
2024-05-09T04:40:24.279Z,52.57
2024-05-09T04:41:17.274Z,52.47
2024-05-09T04:42:16.246Z,52.57
2024-05-09T04:43:16.389Z,52.57
2024-05-09T04:44:16.442Z,52.57
2024-05-09T04:45:16.484Z,52.57
2024-05-09T04:46:16.601Z,52.57
2024-05-09T04:47:16.768Z,52.57
2024-05-09T04:48:17.175Z,52.57
2024-05-09T04:49:16.944Z,52.57
2024-05-09T04:50:25.322Z,52.57
2024-05-09T04:51:18.011Z,52.57
2024-05-09T04:52:17.046Z,52.67
2024-05-09T04:53:17.512Z,52.67
2024-05-09T04:54:26.473Z,52.67
2024-05-09T04:55:18.277Z,52.57
2024-05-09T04:56:17.438Z,52.67
2024-05-09T04:57:17.488Z,52.57
2024-05-09T04:58:17.531Z,52.67
2024-05-09T04:59:17.652Z,52.57
2024-05-09T05:00:25.518Z,52.67
2024-05-09T05:01:18.817Z,52.67
2024-05-09T05:02:17.938Z,52.67
2024-05-09T05:03:18.263Z,52.67
2024-05-09T05:04:18.069Z,52.67
2024-05-09T05:05:18.173Z,52.57
2024-05-09T05:06:18.181Z,52.57
2024-05-09T05:07:18.262Z,52.57
2024-05-09T05:08:19.294Z,52.57
2024-05-09T05:09:18.424Z,52.57
2024-05-09T05:10:25.312Z,52.57
2024-05-09T05:11:19.766Z,52.67
2024-05-09T05:12:18.780Z,52.57
2024-05-09T05:13:19.856Z,52.67
2024-05-09T05:14:19.066Z,52.67
2024-05-09T05:15:18.907Z,52.67
2024-05-09T05:16:18.983Z,52.67
2024-05-09T05:17:19.191Z,52.57
2024-05-09T05:18:19.557Z,52.67
2024-05-09T05:19:19.284Z,52.67
2024-05-09T05:20:27.392Z,52.67
2024-05-09T05:21:20.511Z,52.57
2024-05-09T05:22:19.534Z,52.67
2024-05-09T05:23:19.702Z,52.67
2024-05-09T05:24:19.637Z,52.67
2024-05-09T05:25:19.711Z,52.67
2024-05-09T05:26:19.802Z,52.67
2024-05-09T05:27:19.894Z,52.77
2024-05-09T05:28:19.959Z,52.67
2024-05-09T05:29:20.894Z,52.77
2024-05-09T05:30:25.230Z,52.77
2024-05-09T05:31:21.235Z,52.77
2024-05-09T05:32:20.518Z,52.77
2024-05-09T05:33:20.810Z,52.77
2024-05-09T05:34:20.403Z,52.77
2024-05-09T05:35:20.498Z,52.77
2024-05-09T05:36:20.571Z,52.77
2024-05-09T05:37:20.685Z,52.77
2024-05-09T05:38:24.833Z,52.77
2024-05-09T05:39:21.813Z,52.87
2024-05-09T05:40:27.940Z,52.87
2024-05-09T05:41:22.046Z,52.87
2024-05-09T05:42:21.131Z,52.87
2024-05-09T05:43:21.162Z,52.87
2024-05-09T05:44:21.338Z,52.87
2024-05-09T05:45:21.321Z,52.87
2024-05-09T05:46:21.415Z,52.87
2024-05-09T05:47:21.613Z,52.87
2024-05-09T05:48:21.716Z,52.87
2024-05-09T05:49:21.754Z,52.87
2024-05-09T05:50:27.830Z,52.87
2024-05-09T05:51:22.903Z,52.87
2024-05-09T05:52:22.003Z,52.87
2024-05-09T05:53:22.121Z,52.87
2024-05-09T05:54:22.133Z,52.97
2024-05-09T05:55:22.220Z,52.87
2024-05-09T05:56:22.333Z,52.87
2024-05-09T05:57:22.427Z,52.87
2024-05-09T05:58:22.503Z,52.87
2024-05-09T05:59:22.702Z,52.87
2024-05-09T06:00:29.788Z,52.87
2024-05-09T06:01:23.743Z,52.87
2024-05-09T06:02:23.043Z,52.87
2024-05-09T06:03:23.064Z,52.87
2024-05-09T06:04:23.019Z,52.87
2024-05-09T06:05:24.774Z,52.87
2024-05-09T06:06:23.158Z,52.87
2024-05-09T06:07:24.009Z,52.87
2024-05-09T06:08:24.183Z,52.87
2024-05-09T06:09:23.426Z,52.97
2024-05-09T06:10:26.447Z,52.87
2024-05-09T06:11:24.682Z,52.97
2024-05-09T06:12:23.781Z,52.97
2024-05-09T06:13:23.781Z,52.97
2024-05-09T06:14:23.943Z,52.97
2024-05-09T06:15:23.923Z,52.97
2024-05-09T06:16:24.003Z,52.97
2024-05-09T06:17:24.285Z,52.97
2024-05-09T06:18:24.656Z,52.97
2024-05-09T06:19:24.517Z,52.97
2024-05-09T06:20:33.965Z,52.97
2024-05-09T06:21:25.493Z,52.87
2024-05-09T06:22:24.560Z,52.97
2024-05-09T06:23:24.704Z,52.97
2024-05-09T06:24:24.725Z,52.87
2024-05-09T06:25:24.794Z,52.97
2024-05-09T06:26:24.917Z,52.87
2024-05-09T06:27:24.955Z,52.97
2024-05-09T06:28:25.063Z,52.97
2024-05-09T06:29:25.182Z,52.97
2024-05-09T06:30:30.830Z,52.97
2024-05-09T06:31:26.292Z,52.97
2024-05-09T06:32:25.547Z,52.87
2024-05-09T06:33:25.822Z,52.97
2024-05-09T06:34:25.661Z,52.97
2024-05-09T06:35:25.666Z,52.97
2024-05-09T06:36:25.713Z,52.97
2024-05-09T06:37:25.790Z,52.97
2024-05-09T06:38:25.925Z,52.97
2024-05-09T06:39:25.959Z,52.97
2024-05-09T06:40:34.453Z,52.97
2024-05-09T06:41:27.191Z,52.97
2024-05-09T06:42:26.245Z,52.97
2024-05-09T06:43:26.355Z,52.97
2024-05-09T06:44:26.532Z,52.97
2024-05-09T06:45:26.503Z,52.97
2024-05-09T06:46:26.587Z,52.97
2024-05-09T06:47:26.827Z,52.97
2024-05-09T06:48:26.946Z,52.97
2024-05-09T06:49:26.902Z,52.97
2024-05-09T06:50:31.103Z,52.97
2024-05-09T06:51:28.041Z,52.97
2024-05-09T06:52:27.106Z,52.97
2024-05-09T06:53:27.224Z,53.07
2024-05-09T06:54:27.256Z,53.07
2024-05-09T06:55:27.336Z,52.97
2024-05-09T06:56:27.447Z,53.07
2024-05-09T06:57:27.547Z,52.97
2024-05-09T06:58:27.572Z,53.07
2024-05-09T06:59:27.718Z,53.07
2024-05-09T07:00:35.490Z,53.07
2024-05-09T07:01:28.929Z,53.07
2024-05-09T07:02:28.022Z,53.07
2024-05-09T07:03:28.099Z,53.07
2024-05-09T07:04:28.151Z,53.07
2024-05-09T07:05:28.340Z,53.17
2024-05-09T07:06:28.216Z,53.17
2024-05-09T07:07:28.306Z,53.17
2024-05-09T07:08:28.497Z,53.17
2024-05-09T07:09:28.477Z,53.17
2024-05-09T07:10:32.951Z,53.17
2024-05-09T07:11:29.740Z,53.17
2024-05-09T07:12:28.887Z,53.17
2024-05-09T07:13:28.879Z,53.27
2024-05-09T07:14:29.145Z,53.27
2024-05-09T07:15:29.001Z,53.27
2024-05-09T07:16:29.081Z,53.27
2024-05-09T07:17:29.412Z,53.27
2024-05-09T07:18:29.455Z,53.27
2024-05-09T07:19:29.497Z,53.37
2024-05-09T07:20:34.490Z,53.37
2024-05-09T07:21:30.489Z,53.37
2024-05-09T07:22:29.589Z,53.37
2024-05-09T07:23:29.751Z,53.37
2024-05-09T07:24:29.749Z,53.37
2024-05-09T07:25:30.282Z,53.47
2024-05-09T07:26:29.990Z,53.47
2024-05-09T07:27:29.998Z,53.47
2024-05-09T07:28:30.118Z,53.47
2024-05-09T07:29:30.260Z,53.47
2024-05-09T07:30:33.412Z,53.47
2024-05-09T07:31:30.332Z,53.47
2024-05-09T07:32:30.584Z,53.47
2024-05-09T07:33:30.546Z,53.47
2024-05-09T07:34:30.678Z,53.47
2024-05-09T07:35:31.266Z,53.47
2024-05-09T07:36:30.764Z,53.47
2024-05-09T07:37:30.839Z,53.47
2024-05-09T07:38:30.977Z,53.47
2024-05-09T07:39:31.019Z,53.47
2024-05-09T07:40:35.979Z,53.57
2024-05-09T07:41:32.301Z,53.57
2024-05-09T07:42:31.266Z,53.57
2024-05-09T07:43:31.345Z,53.57
2024-05-09T07:44:31.568Z,53.57
2024-05-09T07:45:47.578Z,53.57
2024-05-09T07:48:57.449Z,53.57
2024-05-09T07:50:33.303Z,53.57
2024-05-09T07:52:23.765Z,53.67
2024-05-09T07:53:08.891Z,53.67
2024-05-09T07:53:33.042Z,53.67
2024-05-09T07:53:40.964Z,53.67
2024-05-09T07:54:33.564Z,53.67
2024-05-09T07:55:32.682Z,53.67
2024-05-09T07:56:32.746Z,53.67
2024-05-09T07:57:32.608Z,53.67
2024-05-09T07:58:32.654Z,53.67
2024-05-09T07:59:37.122Z,53.67
2024-05-09T08:00:33.946Z,53.67
2024-05-09T08:01:33.009Z,53.67
2024-05-09T08:02:33.276Z,53.67
2024-05-09T08:03:33.437Z,53.67
2024-05-09T08:04:33.301Z,53.67
2024-05-09T08:05:33.514Z,53.67
2024-05-09T08:06:33.336Z,53.67
2024-05-09T08:07:33.395Z,53.67
2024-05-09T08:08:33.505Z,53.67
2024-05-09T08:09:35.558Z,53.67
2024-05-09T08:10:33.649Z,53.67
2024-05-09T08:11:33.690Z,53.67
2024-05-09T08:12:33.786Z,53.77
2024-05-09T08:13:33.882Z,53.67
2024-05-09T08:14:33.906Z,53.77
2024-05-09T08:15:34.017Z,53.74
2024-05-09T08:16:34.078Z,53.77
2024-05-09T08:17:34.249Z,53.77
2024-05-09T08:18:34.419Z,53.74
2024-05-09T08:19:34.349Z,53.77
2024-05-09T08:20:35.477Z,53.77
2024-05-09T08:21:34.539Z,53.77
2024-05-09T08:22:34.565Z,53.74
2024-05-09T08:23:34.675Z,53.77
2024-05-09T08:24:34.777Z,53.74
2024-05-09T08:25:34.834Z,53.77
2024-05-09T08:26:34.883Z,53.85
2024-05-09T08:27:35.000Z,53.87
2024-05-09T08:28:35.110Z,53.85
2024-05-09T08:29:35.111Z,53.85
2024-05-09T08:30:37.261Z,53.85
2024-05-09T08:31:35.337Z,53.85
2024-05-09T08:32:35.534Z,53.85
2024-05-09T08:33:35.895Z,53.85
2024-05-09T08:34:35.561Z,53.85
2024-05-09T08:35:35.838Z,53.85
2024-05-09T08:36:35.696Z,53.85
2024-05-09T08:37:38.808Z,53.85
2024-05-09T08:38:35.825Z,53.85
2024-05-09T08:39:35.946Z,53.85
2024-05-09T08:40:37.760Z,53.85
2024-05-09T08:41:36.118Z,53.85
2024-05-09T08:42:36.185Z,53.85
2024-05-09T08:43:39.007Z,53.74
2024-05-09T08:44:36.350Z,53.74
2024-05-09T08:45:36.598Z,53.74
2024-05-09T08:46:36.523Z,53.85
2024-05-09T08:47:36.729Z,53.85
2024-05-09T08:48:36.827Z,53.85
2024-05-09T08:49:37.797Z,53.85
2024-05-09T08:50:39.326Z,53.85
2024-05-09T08:51:36.942Z,53.85
2024-05-09T08:52:37.012Z,53.85
2024-05-09T08:53:37.076Z,53.85
2024-05-09T08:54:37.282Z,53.85
2024-05-09T08:55:40.728Z,53.85
2024-05-09T08:56:38.324Z,53.85
2024-05-09T08:57:37.494Z,53.85
2024-05-09T08:58:37.458Z,53.85
2024-05-09T08:59:37.568Z,53.85
2024-05-09T09:00:37.973Z,53.85
2024-05-09T09:01:39.307Z,53.85
2024-05-09T09:02:37.896Z,53.85
2024-05-09T09:03:38.127Z,53.94
2024-05-09T09:04:38.220Z,53.94
2024-05-09T09:05:38.297Z,53.94
2024-05-09T09:06:38.242Z,53.94
2024-05-09T09:07:38.331Z,53.94
2024-05-09T09:08:38.354Z,53.94
2024-05-09T09:09:38.625Z,53.94
2024-05-09T09:10:38.597Z,53.94
2024-05-09T09:11:38.676Z,53.94
2024-05-09T09:12:38.734Z,53.94
2024-05-09T09:13:38.775Z,53.94
2024-05-09T09:14:38.870Z,53.94
2024-05-09T09:15:38.931Z,53.94
2024-05-09T09:16:38.976Z,54.05
2024-05-09T09:17:39.134Z,54.05
2024-05-09T09:18:39.504Z,54.05
2024-05-09T09:19:39.376Z,54.05
2024-05-09T09:20:39.303Z,54.05
2024-05-09T09:21:39.462Z,54.05
2024-05-09T09:22:39.433Z,54.05
2024-05-09T09:23:39.523Z,54.05
2024-05-09T09:24:39.657Z,54.05
2024-05-09T09:25:39.669Z,54.05
2024-05-09T09:26:39.764Z,54.05
2024-05-09T09:27:39.860Z,54.05
2024-05-09T09:28:39.938Z,54.05
2024-05-09T09:29:40.084Z,54.05
2024-05-09T09:30:40.447Z,54.14
2024-05-09T09:31:40.214Z,54.14
2024-05-09T09:32:40.350Z,54.14
2024-05-09T09:33:40.521Z,54.14
2024-05-09T09:34:40.567Z,54.14
2024-05-09T09:35:40.726Z,54.14
2024-05-09T09:36:40.661Z,54.14
2024-05-09T09:37:40.674Z,54.14
2024-05-09T09:38:40.763Z,54.14
2024-05-09T09:39:40.913Z,54.14
2024-05-09T09:40:45.001Z,54.14
2024-05-09T09:41:42.014Z,54.14
2024-05-09T09:42:41.138Z,54.14
2024-05-09T09:43:41.196Z,54.14
2024-05-09T09:44:42.399Z,54.14
2024-05-09T09:45:41.478Z,54.14
2024-05-09T09:46:41.459Z,54.14
2024-05-09T09:47:41.701Z,54.14
2024-05-09T09:48:42.068Z,54.14
2024-05-09T09:49:41.865Z,54.14
2024-05-09T09:50:41.859Z,54.14
2024-05-09T09:51:41.956Z,54.14
2024-05-09T09:52:42.031Z,54.14
2024-05-09T09:53:42.097Z,54.14
2024-05-09T09:54:42.252Z,54.14
2024-05-09T09:55:42.264Z,54.24
2024-05-09T09:56:42.329Z,54.24
2024-05-09T09:57:42.423Z,54.24
2024-05-09T09:58:42.505Z,54.24
2024-05-09T09:59:42.609Z,54.24
2024-05-09T10:00:42.847Z,54.24
2024-05-09T10:01:42.848Z,54.24
2024-05-09T10:02:42.856Z,54.24
2024-05-09T10:03:43.102Z,54.24
2024-05-09T10:04:43.101Z,54.24
2024-05-09T10:05:46.134Z,54.24
2024-05-09T10:06:43.218Z,54.24
2024-05-09T10:07:43.240Z,54.24
2024-05-09T10:08:43.314Z,54.24
2024-05-09T10:09:43.411Z,54.24
2024-05-09T10:10:43.887Z,54.24
2024-05-09T10:11:49.070Z,54.24
2024-05-09T10:12:44.631Z,54.24
2024-05-09T10:13:43.720Z,54.24
2024-05-09T10:14:43.792Z,54.35
2024-05-09T10:15:43.977Z,54.35
2024-05-09T10:16:43.966Z,54.35
2024-05-09T10:17:44.196Z,54.35
2024-05-09T10:18:44.381Z,54.35
2024-05-09T10:19:44.280Z,54.35
2024-05-09T10:20:44.534Z,54.35
2024-05-09T10:21:44.418Z,54.35
2024-05-09T10:22:44.496Z,54.35
2024-05-09T10:23:44.605Z,54.35
2024-05-09T10:24:44.723Z,54.35
2024-05-09T10:25:44.731Z,54.35
2024-05-09T10:26:44.784Z,54.44
2024-05-09T10:27:44.874Z,54.44
2024-05-09T10:28:44.982Z,54.44
2024-05-09T10:29:45.036Z,54.44
2024-05-09T10:30:46.643Z,54.44
2024-05-09T10:31:45.328Z,54.44
2024-05-09T10:32:45.372Z,54.44
2024-05-09T10:33:45.667Z,54.44
2024-05-09T10:34:45.468Z,54.44
2024-05-09T10:35:45.523Z,54.44
2024-05-09T10:36:45.658Z,54.44
2024-05-09T10:37:45.697Z,54.44
2024-05-09T10:38:45.831Z,54.44
2024-05-09T10:39:45.944Z,54.44
2024-05-09T10:40:46.053Z,54.44
2024-05-09T10:41:46.035Z,54.55
2024-05-09T10:42:46.227Z,54.55
2024-05-09T10:43:46.247Z,54.55
2024-05-09T10:44:46.291Z,54.55
2024-05-09T10:45:46.349Z,54.55
2024-05-09T10:46:46.435Z,54.55
2024-05-09T10:47:46.586Z,54.55
2024-05-09T10:48:46.794Z,54.55
2024-05-09T10:49:46.739Z,54.55
2024-05-09T10:50:46.706Z,54.55
2024-05-09T10:51:46.843Z,54.55
2024-05-09T10:52:46.846Z,54.55
2024-05-09T10:53:46.955Z,54.55
2024-05-09T10:54:47.087Z,54.64
2024-05-09T10:55:47.123Z,54.64
2024-05-09T10:56:47.173Z,54.64
2024-05-09T10:57:47.281Z,54.64
2024-05-09T10:58:47.387Z,54.64
2024-05-09T10:59:47.463Z,54.64
2024-05-09T11:00:47.666Z,54.64
2024-05-09T11:01:47.678Z,54.64
2024-05-09T11:02:47.751Z,54.64
2024-05-09T11:03:48.068Z,54.64
2024-05-09T11:04:47.989Z,54.64
2024-05-09T11:05:48.114Z,54.64
2024-05-09T11:06:48.087Z,54.64
2024-05-09T11:07:48.121Z,54.64
2024-05-09T11:08:48.202Z,54.64
2024-05-09T11:09:48.331Z,54.64
2024-05-09T11:10:48.426Z,54.64
2024-05-09T11:11:48.473Z,54.74
2024-05-09T11:12:48.554Z,54.74
2024-05-09T11:13:48.597Z,54.74
2024-05-09T11:14:48.684Z,54.64
2024-05-09T11:15:48.817Z,54.74
2024-05-09T11:16:48.833Z,54.74
2024-05-09T11:17:48.994Z,54.74
2024-05-09T11:18:49.234Z,54.64
2024-05-09T11:19:49.112Z,54.74
2024-05-09T11:20:49.599Z,54.74
2024-05-09T11:21:49.292Z,54.74
2024-05-09T11:22:49.311Z,54.74
2024-05-09T11:23:49.383Z,54.74
2024-05-09T11:24:49.502Z,54.74
2024-05-09T11:25:49.565Z,54.74
2024-05-09T11:26:49.669Z,54.74
2024-05-09T11:27:49.743Z,54.74
2024-05-09T11:28:49.809Z,54.74
2024-05-09T11:29:49.874Z,54.74
2024-05-09T11:30:50.090Z,54.74
2024-05-09T11:31:50.112Z,54.85
2024-05-09T11:32:50.194Z,54.74
2024-05-09T11:33:50.407Z,54.74
2024-05-09T11:34:50.305Z,54.74
2024-05-09T11:35:50.357Z,54.74
2024-05-09T11:36:50.572Z,54.74
2024-05-09T11:37:50.539Z,54.85
2024-05-09T11:38:50.609Z,54.85
2024-05-09T11:39:50.766Z,54.85
2024-05-09T11:40:50.799Z,54.85
2024-05-09T11:41:50.898Z,54.85
2024-05-09T11:42:53.274Z,54.85
2024-05-09T11:43:51.017Z,54.85
2024-05-09T11:44:51.094Z,54.85
2024-05-09T11:45:51.236Z,54.85
2024-05-09T11:46:51.283Z,54.85
2024-05-09T11:47:51.430Z,54.85
2024-05-09T11:48:51.590Z,54.85
2024-05-09T11:49:51.608Z,54.85
2024-05-09T11:50:51.581Z,54.85
2024-05-09T11:51:51.739Z,54.82
2024-05-09T11:52:51.722Z,54.85
2024-05-09T11:53:51.818Z,54.85
2024-05-09T11:54:51.943Z,54.82
2024-05-09T11:55:51.966Z,54.85
2024-05-09T11:56:52.100Z,54.82
2024-05-09T11:57:52.207Z,54.82
2024-05-09T11:58:52.213Z,54.82
2024-05-09T11:59:52.295Z,54.82
2024-05-09T12:00:52.552Z,54.82
2024-05-09T12:01:52.659Z,54.82
2024-05-09T12:02:52.523Z,54.82
2024-05-09T12:03:52.810Z,54.82
2024-05-09T12:04:52.772Z,54.82
2024-05-09T12:05:52.833Z,54.82
2024-05-09T12:06:52.940Z,54.82
2024-05-09T12:07:52.923Z,54.82
2024-05-09T12:08:52.994Z,54.82
2024-05-09T12:09:53.107Z,54.82
2024-05-09T12:10:53.618Z,54.82
2024-05-09T12:11:53.453Z,54.82
2024-05-09T12:12:53.396Z,54.82
2024-05-09T12:13:53.436Z,54.82
2024-05-09T12:14:53.529Z,54.82
2024-05-09T12:15:53.633Z,54.82
2024-05-09T12:16:53.755Z,54.82
2024-05-09T12:17:54.055Z,54.92
2024-05-09T12:18:54.134Z,54.92
2024-05-09T12:19:53.948Z,54.92
2024-05-09T12:20:55.046Z,54.92
2024-05-09T12:21:54.264Z,54.92
2024-05-09T12:22:54.205Z,54.92
2024-05-09T12:23:54.289Z,54.92
2024-05-09T12:24:54.532Z,54.82
2024-05-09T12:25:54.450Z,54.82
2024-05-09T12:26:54.547Z,54.82
2024-05-09T12:27:54.719Z,54.82
2024-05-09T12:28:54.700Z,54.82
2024-05-09T12:29:54.755Z,54.82
2024-05-09T12:30:54.910Z,54.82
2024-05-09T12:31:54.979Z,54.92
2024-05-09T12:32:55.107Z,54.92
2024-05-09T12:33:55.151Z,54.92
2024-05-09T12:34:55.150Z,54.82
2024-05-09T12:35:55.231Z,54.92
2024-05-09T12:36:55.370Z,54.82
2024-05-09T12:37:55.405Z,54.92
2024-05-09T12:38:55.475Z,54.92
2024-05-09T12:39:55.716Z,54.82
2024-05-09T12:40:56.140Z,54.82
2024-05-09T12:41:55.729Z,54.92
2024-05-09T12:42:55.826Z,54.92
2024-05-09T12:43:55.881Z,54.82
2024-05-09T12:44:55.996Z,54.82
2024-05-09T12:45:56.058Z,54.92
2024-05-09T12:46:56.113Z,54.82
2024-05-09T12:47:56.353Z,54.82
2024-05-09T12:48:56.684Z,54.82
2024-05-09T12:49:56.412Z,54.82
2024-05-09T12:50:56.444Z,54.82
2024-05-09T12:51:56.559Z,54.82
2024-05-09T12:52:56.649Z,54.82
2024-05-09T12:53:56.698Z,54.82
2024-05-09T12:54:56.796Z,54.82
2024-05-09T12:56:01.592Z,54.82